WEATHER DATA

YESTERDAY
Time Temp. Dewp. Hum. Wind dir Wind speed Wind gust Bar. 1h Prec. 24h Prec.
00:04 22.9 13.9 57 237 0.3 0.8 1013 0.0000 0.0000
00:15 22.8 13.8 57 225 0.3 0.6 1013 0.0000 0.0000
00:25 22.7 14 58 213 0.3 0.6 1013.1 0.0000 0.0000
00:35 22.6 13.9 58 158 0.3 0.6 1013 0.0000 0.0000
00:45 22.5 14.4 60 144 0.3 0.6 1012.9 0.0000 0.0000
00:55 22.5 14.4 60 143 0.3 0.6 1012.9 0.0000 0.0000
01:05 22.4 14 59 185 0.3 0.8 1012.8 0.0000 0.0000
01:15 22.3 13.9 59 170 0.3 0.6 1012.8 0.0000 0.0000
01:26 22.3 14.2 60 180 0.3 0.6 1012.8 0.0000 0.0000
01:36 22.2 14.1 60 135 0.3 0.6 1012.8 0.0000 0.0000
01:45 22.2 14.1 60 135 0.3 0.6 1012.8 0.0000 0.0000
01:56 22.1 14.2 61 135 0.3 0.6 1012.6 0.0000 0.0000
02:06 22 14.1 61 203 0.3 0.8 1012.4 0.0000 0.0000
02:16 21.9 14 61 206 0.3 0.8 1012.4 0.0000 0.0000
02:26 21.8 14.2 62 270 0.3 0.6 1012.2 0.0000 0.0000
02:37 21.7 14.1 62 270 0.3 0.6 1012.2 0.0000 0.0000
02:47 21.7 14.1 62 270 0.3 0.6 1012.2 0.0000 0.0000
02:56 21.6 14 62 225 0.3 0.6 1012.1 0.0000 0.0000
03:06 21.5 13.7 61 270 0.3 0.8 1012.1 0.0000 0.0000
03:17 21.5 13.7 61 236 0.3 0.6 1012.1 0.0000 0.0000
03:27 21.4 13.8 62 135 0.3 0.8 1012.2 0.0000 0.0000
03:37 21.4 13.8 62 135 0.3 0.6 1012.1 0.0000 0.0000
03:48 21.3 13.7 62 225 0.3 0.6 1012 0.0000 0.0000
03:57 21.3 13.7 62 213 0.3 0.6 1012 0.0000 0.0000
04:07 21.2 13.6 62 161 0.3 0.6 1012 0.0000 0.0000
04:17 21.2 13.6 62 180 0.3 0.6 1012 0.0000 0.0000
04:28 21.2 13.6 62 180 0.3 0.6 1011.9 0.0000 0.0000
04:38 21.1 13.8 63 161 0.3 0.6 1011.9 0.0000 0.0000
04:48 21 13.9 64 206 0.3 0.6 1011.9 0.0000 0.0000
04:58 20.9 13.8 64 225 0.3 0.6 1011.9 0.0000 0.0000
05:08 20.8 13.7 64 225 0.3 0.6 1011.9 0.0000 0.0000
05:18 20.7 13.9 65 0.3 0.6 1011.9 0.0000 0.0000
05:28 20.6 13.6 64 210 0.3 0.6 1011.9 0.0000 0.0000
05:39 20.7 13.9 65 198 0.3 0.6 1011.9 0.0000 0.0000
05:49 20.9 13.8 64 206 0.3 0.6 1011.9 0.0000 0.0000
05:59 21 14.2 65 135 0.3 0.6 1011.9 0.0000 0.0000
06:09 21 14.2 65 90 0.3 0.6 1011.9 0.0000 0.0000
06:19 21.3 14.2 64 135 0.3 0.6 1011.9 0.0000 0.0000
06:29 21.1 14.3 65 135 0.3 0.6 1011.8 0.0000 0.0000
06:39 21.3 14.5 65 90 0.3 0.6 1011.7 0.0000 0.0000
06:50 21.2 14.4 65 150 0.3 0.6 1011.7 0.0000 0.0000
07:00 21.1 14.3 65 90 0.3 0.6 1011.8 0.0000 0.0000
07:09 21.1 14.5 66 135 0.3 0.6 1011.8 0.0000 0.0000
07:19 21 14.4 66 135 0.3 0.6 1011.8 0.0000 0.0000
07:30 21 14.4 66 144 0.3 0.6 1011.8 0.0000 0.0000
07:40 21 14.4 66 0 0.3 1011.9 0.0000 0.0000
07:50 21 14.6 67 0 0.6 1011.9 0.0000 0.0000
08:00 21.1 14.7 67 161 0.3 0.6 1012 0.0000 0.0000
08:11 21.1 14.5 66 135 0.3 0.6 1012 0.0000 0.0000
08:21 21.1 14.7 67 165 0.3 0.6 1012 0.0000 0.0000
08:30 21.2 14.8 67 198 0.3 0.6 1012 0.0000 0.0000
08:41 21.2 14.6 66 90 0.3 0.6 1012 0.0000 0.0000
08:51 21.3 14.7 66 135 0.3 0.6 1012 0.0000 0.0000
09:01 21.5 15.1 67 135 0.3 0.6 1012.1 0.0000 0.0000
09:11 21.6 15 66 194 0.3 0.6 1012.1 0.0000 0.0000
09:22 21.8 15.2 66 135 0.3 0.6 1012.1 0.0000 0.0000
09:31 22 15.4 66 156 0.3 0.6 1012.1 0.0000 0.0000
09:41 22.2 15.6 66 186 0.3 0.6 1012.1 0.0000 0.0000
09:51 22.4 15.7 66 180 0.3 0.6 1012 0.0000 0.0000
10:02 22.6 15.7 65 180 0.3 0.6 1011.9 0.0000 0.0000
10:12 22.8 15.9 65 173 0.3 0.8 1011.9 0.0000 0.0000
10:22 23.1 16.2 65 186 0.3 0.6 1011.9 0.0000 0.0000
10:33 23.3 16.4 65 144 0.3 0.6 1011.9 0.0000 0.0000
10:42 23.6 16.4 64 225 0.3 0.8 1011.8 0.0000 0.0000
10:52 23.8 16.3 63 218 0.3 0.6 1011.7 0.0000 0.0000
11:02 24.1 16.4 62 191 0.3 1.1 1011.7 0.0000 0.0000
11:13 24.4 16.9 63 191 0.3 0.6 1011.6 0.0000 0.0000
11:23 24.7 16.9 62 191 0.3 0.6 1011.5 0.0000 0.0000
11:33 24.9 16.6 60 225 0.3 0.8 1011.5 0.0000 0.0000
11:37 25.1 16.3 58 225 0.3 0.8 1011.5 0.0000 0.0000
11:47 25.3 15.9 56 171 0.3 0.6 1011.3 0.0000 0.0000
11:57 25.5 16.1 56 225 0.3 1.1 1011.3 0.0000 0.0000
12:07 25.9 15.6 53 206 0.3 0.8 1011.3 0.0000 0.0000
12:18 26.1 15.5 52 270 0.3 1.4 1011.3 0.0000 0.0000
12:28 26.3 16 53 90 0.3 0.6 1011.2 0.0000 0.0000
12:38 26.5 16.1 53 201 0.3 1.1 1011.2 0.0000 0.0000
12:48 26.7 16.3 53 239 0.3 1.1 1011.1 0.0000 0.0000
12:58 26.9 16.5 53 161 0.3 0.6 1011 0.0000 0.0000
13:08 27.1 16.4 52 225 0.3 0.8 1011 0.0000 0.0000
13:18 27.3 16.3 51 225 0.3 0.8 1011 0.0000 0.0000
13:29 27.5 16.2 50 225 0.3 0.8 1011 0.0000 0.0000
13:39 27.5 16.5 51 144 0.3 0.6 1010.9 0.0000 0.0000
13:49 27.6 16.6 51 153 0.3 0.8 1010.7 0.0000 0.0000
13:58 27.7 16.7 51 144 0.3 0.6 1010.5 0.0000 0.0000
14:09 27.9 16.8 51 171 0.3 0.8 1010.5 0.0000 0.0000
14:19 28 16.3 49 191 0.3 0.6 1010.4 0.0000 0.0000
14:29 28.1 16.7 50 156 0.3 1.1 1010.3 0.0000 0.0000
14:39 28.3 17.2 51 135 0.3 0.6 1010.2 0.0000 0.0000
14:50 28.3 16.6 49 144 0.3 1.1 1010.2 0.0000 0.0000
15:00 28.4 16.3 48 198 0.3 0.6 1010.1 0.0000 0.0000
15:09 28.4 16.3 48 210 0.3 1.1 1010 0.0000 0.0000
15:20 28.4 16 47 0 0.6 1009.9 0.0000 0.0000
15:30 28.4 16 47 0 0.3 1009.9 0.0000 0.0000
15:40 28.4 15.7 46 135 0.3 0.6 1009.7 0.0000 0.0000
15:50 28.3 15.6 46 239 0.3 0.8 1009.7 0.0000 0.0000
16:01 28.3 15.6 46 186 0.3 0.6 1009.6 0.0000 0.0000
16:10 28.3 15.6 46 135 0.3 0.6 1009.5 0.0000 0.0000
16:20 28.3 16.2 48 135 0.3 0.6 1009.4 0.0000 0.0000
16:31 28.3 15.9 47 146 0.3 0.6 1009.4 0.0000 0.0000
16:41 28.2 15.5 46 161 0.3 0.6 1009.4 0.0000 0.0000
16:51 28.1 15.7 47 153 0.3 0.6 1009.5 0.0000 0.0000
17:01 28.1 16.4 49 153 0.3 0.6 1009.3 0.0000 0.0000
17:11 27.9 15.6 47 150 0.3 0.6 1009.1 0.0000 0.0000
17:21 27.8 15.8 48 156 0.3 0.6 1009.2 0.0000 0.0000
17:31 27.7 16 49 198 0.3 0.6 1009.2 0.0000 0.0000
17:41 27.5 16.5 51 191 0.3 0.8 1009.2 0.0000 0.0000
17:52 27.4 16.7 52 191 0.3 0.8 1009.2 0.0000 0.0000
18:02 27.3 16.6 52 198 0.3 0.8 1009.1 0.0000 0.0000
18:12 27.1 16.4 52 239 0.3 0.8 1009.2 0.0000 0.0000
18:22 27 16.3 52 161 0.3 0.6 1009.4 0.0000 0.0000
18:32 26.9 16.8 54 225 0.3 0.6 1009.3 0.0000 0.0000
18:42 26.8 16.7 54 180 0.3 0.6 1009.3 0.0000 0.0000
18:52 26.8 16.7 54 188 0.3 0.6 1009.2 0.0000 0.0000
19:03 26.7 17.2 56 180 0.3 0.8 1009.3 0.0000 0.0000
19:13 26.6 16.8 55 198 0.3 0.6 1009.4 0.0000 0.0000
19:23 26.5 16.7 55 135 0.3 0.8 1009.3 0.0000 0.0000
19:33 26.4 16.6 55 156 0.3 0.6 1009.3 0.0000 0.0000
19:43 26.3 16.3 54 123 0.3 0.6 1009.4 0.0000 0.0000
19:53 26.2 16.5 55 135 0.3 0.6 1009.4 0.0000 0.0000
20:03 26.2 16.2 54 149 0.3 0.6 1009.4 0.0000 0.0000
20:14 26.1 16.4 55 135 0.3 0.6 1009.4 0.0000 0.0000
20:24 26 16.5 56 125 0.3 0.6 1009.4 0.0000 0.0000
20:34 26 16.8 57 135 0.3 0.6 1009.3 0.0000 0.0000
20:44 25.9 17 58 0 0.6 1009.4 0.0000 0.0000
20:54 25.8 16.9 58 90 0.3 0.6 1009.4 0.0000 0.0000
21:04 25.5 16.6 58 135 0.3 0.8 1009.4 0.0000 0.0000
21:14 25.3 16.7 59 180 0.3 0.8 1009.3 0.0000 0.0000
21:24 25.2 16.9 60 135 0.3 0.6 1009.3 0.0000 0.0000
21:35 25.2 16.9 60 123 0.3 0.6 1009.3 0.0000 0.0000
21:45 25.1 16.8 60 90 0.3 0.6 1009.2 0.0000 0.0000
21:55 25.1 16.8 60 135 0.3 0.6 1009.3 0.0000 0.0000
22:05 25 16.7 60 135 0.3 0.6 1009.3 0.0000 0.0000
22:15 25 16.7 60 135 0.3 0.6 1009.3 0.0000 0.0000
22:25 24.9 16.6 60 135 0.3 0.6 1009.3 0.0000 0.0000
22:35 24.9 16.3 59 135 0.3 0.6 1009.3 0.0000 0.0000
22:46 24.8 16.2 59 135 0.3 0.6 1009.4 0.0000 0.0000
22:56 24.7 16.2 59 0 0.6 1009.5 0.0000 0.0000
23:06 24.6 16.3 60 144 0.3 0.6 1009.5 0.0000 0.0000
23:16 24.5 16 59 123 0.3 0.6 1009.6 0.0000 0.0000
23:26 24.4 15.9 59 125 0.3 0.6 1009.5 0.0000 0.0000
23:36 24.4 15.9 59 135 0.3 0.6 1009.5 0.0000 0.0000
23:46 24.3 15.8 59 144 0.3 0.6 1009.5 0.0000 0.0000
23:57 24.3 15.8 59 135 0.3 0.6 1009.5 0.0000 0.0000

DAY STATISTIC

2019-06-18
TEMPERATURE
AVERAGE
24.3
HIGH
28.4
15:00
LOW
20.6
05:28
PRESSURE
AVERAGE
1010.9
HIGH
1013.1
00:25
LOW
1009.1
17:11
DEWPOINT
AVERAGE
15.5
HIGH
17.2
14:39
LOW
13.6
04:07
HUMIDITY
AVERAGE
58
HIGH
67
07:50
LOW
46
15:40
WIND SPEED
AVERAGE
0.3
HIGH
0.3
00:04
WIND GUST
AVERAGE
0.7
HIGH
1.4
12:18
WIND DIRECTION
PREVAILING
SE
39.9%
N
0.0
NE
0.0
E
4.9
SE
39.9
S
28.0
SW
18.9
W
3.5
NW
0.0
PRECIPITATION
RAIN HOUR
0.0
RAIN DAY
0.0
TEMPERATURE (°C)
LOW
20.6
HIGH
28.4
AVERAGE
24.3
PRESSURE (hpa)
LOW
1009.1
HIGH
1013.1
AVERAGE
1010.9
DEVICE